createdAt,value
2022-10-01T00:02:25.092Z,0.00
2022-10-01T00:04:52.161Z,0.00
2022-10-01T00:07:19.322Z,0.05
2022-10-01T00:09:47.200Z,0.00
2022-10-01T00:12:16.544Z,0.00
2022-10-01T00:14:45.018Z,0.00
2022-10-01T00:17:12.186Z,0.00
2022-10-01T00:19:39.333Z,0.00
2022-10-01T00:22:06.594Z,0.00
2022-10-01T00:24:33.807Z,0.00
2022-10-01T00:27:00.884Z,0.00
2022-10-01T00:29:28.167Z,0.00
2022-10-01T00:31:55.276Z,0.00
2022-10-01T00:34:22.481Z,0.00
2022-10-01T00:36:49.910Z,0.00
2022-10-01T00:39:17.015Z,0.00
2022-10-01T00:41:44.158Z,0.00
2022-10-01T00:44:26.686Z,0.00
2022-10-01T00:46:54.110Z,0.20
2022-10-01T00:49:24.275Z,0.00
2022-10-01T00:51:53.246Z,0.00
2022-10-01T00:54:23.335Z,0.00
2022-10-01T00:56:52.126Z,0.00
2022-10-01T00:59:19.210Z,0.00
2022-10-01T01:01:46.374Z,0.00
2022-10-01T01:04:16.937Z,0.00
2022-10-01T01:06:48.517Z,0.00
2022-10-01T01:09:15.754Z,0.00
2022-10-01T01:11:51.490Z,0.00
2022-10-01T01:14:38.787Z,0.00
2022-10-01T01:17:13.839Z,0.00
2022-10-01T01:19:40.894Z,0.00
2022-10-01T01:22:08.286Z,0.00
2022-10-01T01:24:48.625Z,0.00
2022-10-01T01:27:25.337Z,0.00
2022-10-01T01:29:53.022Z,0.08
2022-10-01T01:32:30.516Z,0.00
2022-10-01T01:34:59.255Z,0.00
2022-10-01T01:37:28.230Z,0.00
2022-10-01T01:39:57.041Z,0.10
2022-10-01T01:42:31.254Z,0.00
2022-10-01T01:45:00.422Z,0.00
2022-10-01T01:47:29.555Z,0.00
2022-10-01T01:49:58.416Z,0.00
2022-10-01T01:52:25.573Z,0.00
2022-10-01T01:54:54.942Z,0.00
2022-10-01T01:57:22.092Z,0.00
2022-10-01T01:59:49.397Z,0.00
2022-10-01T02:02:18.296Z,0.00
2022-10-01T02:04:54.872Z,0.00
2022-10-01T02:07:33.188Z,0.00
2022-10-01T02:10:10.965Z,0.00
2022-10-01T02:12:53.628Z,0.00
2022-10-01T02:15:32.069Z,0.00
2022-10-01T02:18:03.123Z,0.00
2022-10-01T02:20:31.734Z,0.00
2022-10-01T02:23:02.620Z,0.00
2022-10-01T02:25:33.001Z,0.00
2022-10-01T02:28:02.063Z,0.00
2022-10-01T02:30:30.827Z,0.00
2022-10-01T02:32:59.274Z,0.00
2022-10-01T02:35:27.550Z,0.00
2022-10-01T02:37:56.473Z,0.00
2022-10-01T02:40:26.241Z,0.00
2022-10-01T02:42:55.995Z,0.00
2022-10-01T02:45:24.016Z,0.00
2022-10-01T02:47:56.267Z,0.00
2022-10-01T02:50:24.868Z,0.08
2022-10-01T02:53:05.307Z,0.00
2022-10-01T02:55:38.963Z,0.00
2022-10-01T02:58:06.498Z,0.00
2022-10-01T03:00:33.704Z,0.00
2022-10-01T03:03:00.823Z,0.00
2022-10-01T03:05:28.049Z,0.00
2022-10-01T03:07:55.275Z,0.00
2022-10-01T03:10:22.443Z,0.00
2022-10-01T03:12:51.222Z,0.00
2022-10-01T03:15:19.476Z,0.00
2022-10-01T03:17:47.595Z,0.00
2022-10-01T03:20:14.666Z,0.00
2022-10-01T03:22:41.703Z,0.00
2022-10-01T03:25:09.407Z,0.00
2022-10-01T03:27:36.621Z,0.00
2022-10-01T03:30:04.352Z,0.00
2022-10-01T03:32:31.394Z,0.00
2022-10-01T03:34:58.463Z,0.00
2022-10-01T03:37:35.100Z,0.00
2022-10-01T03:40:02.238Z,0.00
2022-10-01T03:42:29.285Z,0.00
2022-10-01T03:44:56.378Z,0.00
2022-10-01T03:47:24.539Z,0.00
2022-10-01T03:49:51.637Z,0.00
2022-10-01T03:52:19.113Z,0.00
2022-10-01T03:54:46.337Z,0.00
2022-10-01T03:57:13.450Z,0.00
2022-10-01T03:59:40.543Z,0.00
2022-10-01T04:02:08.105Z,0.00
2022-10-01T04:04:35.324Z,0.00
2022-10-01T04:07:02.433Z,0.00
2022-10-01T04:09:29.559Z,0.00
2022-10-01T04:11:56.758Z,0.00
2022-10-01T04:14:23.828Z,0.00
2022-10-01T04:16:52.391Z,0.00
2022-10-01T04:19:20.486Z,0.00
2022-10-01T04:21:47.929Z,0.00
2022-10-01T04:24:15.035Z,0.00
2022-10-01T04:26:44.449Z,0.00
2022-10-01T04:29:11.839Z,0.00
2022-10-01T04:31:40.290Z,0.00
2022-10-01T04:34:07.469Z,0.00
2022-10-01T04:36:34.743Z,0.00
2022-10-01T04:39:02.926Z,0.00
2022-10-01T04:41:31.533Z,0.00
2022-10-01T04:43:59.958Z,0.00
2022-10-01T04:46:27.468Z,0.00
2022-10-01T04:48:54.557Z,0.00
2022-10-01T04:51:21.884Z,0.00
2022-10-01T04:53:49.248Z,0.00
2022-10-01T04:56:17.380Z,0.00
2022-10-01T04:58:44.443Z,0.00
2022-10-01T05:01:11.591Z,0.00
2022-10-01T05:03:38.669Z,0.00
2022-10-01T05:06:05.933Z,0.10
2022-10-01T05:08:33.044Z,0.00
2022-10-01T05:11:02.747Z,0.00
2022-10-01T05:13:30.211Z,0.00
2022-10-01T05:15:57.643Z,0.00
2022-10-01T05:18:25.009Z,0.00
2022-10-01T05:20:52.165Z,0.00
2022-10-01T05:23:19.396Z,0.00
2022-10-01T05:25:47.055Z,0.00
2022-10-01T05:28:17.230Z,0.00
2022-10-01T05:30:51.008Z,0.00
2022-10-01T05:33:19.213Z,0.00
2022-10-01T05:35:46.322Z,0.00
2022-10-01T05:38:13.442Z,0.00
2022-10-01T05:40:40.496Z,0.00
2022-10-01T05:43:07.583Z,0.00
2022-10-01T05:45:35.880Z,0.00
2022-10-01T05:48:04.774Z,0.00
2022-10-01T05:50:35.926Z,0.00
2022-10-01T05:53:04.396Z,0.00
2022-10-01T05:55:34.874Z,0.00
2022-10-01T05:58:05.907Z,0.00
2022-10-01T06:00:33.799Z,0.00
2022-10-01T06:03:01.608Z,0.00
2022-10-01T06:05:29.911Z,0.00
2022-10-01T06:07:57.219Z,0.00
2022-10-01T06:10:25.333Z,0.00
2022-10-01T06:12:53.071Z,0.00
2022-10-01T06:15:20.178Z,0.00
2022-10-01T06:17:47.522Z,0.00
2022-10-01T06:20:19.289Z,0.00
2022-10-01T06:22:53.279Z,0.00
2022-10-01T06:25:20.380Z,0.00
2022-10-01T06:27:53.422Z,0.00
2022-10-01T06:30:20.623Z,0.00
2022-10-01T06:32:47.719Z,0.00
2022-10-01T06:35:14.874Z,0.00
2022-10-01T06:37:42.037Z,0.00
2022-10-01T06:40:09.330Z,0.00
2022-10-01T06:42:36.600Z,0.00
2022-10-01T06:45:04.221Z,0.00
2022-10-01T06:47:31.529Z,0.00
2022-10-01T06:49:59.314Z,0.00
2022-10-01T06:52:45.100Z,0.00
2022-10-01T06:55:16.494Z,0.00
2022-10-01T06:57:43.998Z,0.00
2022-10-01T07:00:11.976Z,0.00
2022-10-01T07:02:39.644Z,0.00
2022-10-01T07:05:08.112Z,0.00
2022-10-01T07:07:37.113Z,0.00
2022-10-01T07:10:05.671Z,0.00
2022-10-01T07:12:33.931Z,0.00
2022-10-01T07:15:01.062Z,0.00
2022-10-01T07:17:28.303Z,0.00
2022-10-01T07:19:55.397Z,0.00
2022-10-01T07:22:24.200Z,0.20
2022-10-01T07:24:52.122Z,0.10
2022-10-01T07:27:19.732Z,0.00
2022-10-01T07:29:46.968Z,0.00
2022-10-01T07:32:14.712Z,0.00
2022-10-01T07:34:42.462Z,0.00
2022-10-01T07:37:09.684Z,0.00
2022-10-01T07:39:37.340Z,0.00
2022-10-01T07:42:04.639Z,0.00
2022-10-01T07:44:31.702Z,0.00
2022-10-01T07:46:59.928Z,0.00
2022-10-01T07:49:29.610Z,0.00
2022-10-01T07:51:58.866Z,0.00
2022-10-01T07:54:26.404Z,0.00
2022-10-01T07:56:55.801Z,0.00
2022-10-01T07:59:23.867Z,0.00
2022-10-01T08:01:51.925Z,0.00
2022-10-01T08:04:38.230Z,0.00
2022-10-01T08:07:05.724Z,0.00
2022-10-01T08:09:32.791Z,0.00
2022-10-01T08:12:01.801Z,0.00
2022-10-01T08:14:30.651Z,0.00
2022-10-01T08:16:58.410Z,0.00
2022-10-01T08:19:25.986Z,0.00
2022-10-01T08:21:53.105Z,0.00
2022-10-01T08:24:20.196Z,0.00
2022-10-01T08:26:52.226Z,0.00
2022-10-01T08:29:19.546Z,0.00
2022-10-01T08:31:46.694Z,0.00
2022-10-01T08:34:14.007Z,0.13
2022-10-01T08:36:41.305Z,0.00
2022-10-01T08:39:08.519Z,0.00
2022-10-01T08:41:50.858Z,0.00
2022-10-01T08:44:27.705Z,0.05
2022-10-01T08:47:05.199Z,0.00
2022-10-01T08:49:36.077Z,0.00
2022-10-01T08:52:13.250Z,0.00
2022-10-01T08:54:43.295Z,0.10
2022-10-01T08:57:17.694Z,0.00
2022-10-01T08:59:56.195Z,0.43
2022-10-01T09:02:25.515Z,0.00
2022-10-01T09:04:58.905Z,0.00
2022-10-01T09:07:37.394Z,0.00
2022-10-01T09:10:24.744Z,0.00
2022-10-01T09:13:06.353Z,0.00
2022-10-01T09:15:47.153Z,0.00
2022-10-01T09:18:25.773Z,0.10
2022-10-01T09:20:55.524Z,0.00
2022-10-01T09:23:25.665Z,0.00
2022-10-01T09:25:53.196Z,0.00
2022-10-01T09:28:21.960Z,0.00
2022-10-01T09:30:58.013Z,0.00
2022-10-01T09:33:30.037Z,0.25
2022-10-01T09:35:57.058Z,0.00
2022-10-01T09:38:35.673Z,0.70
2022-10-01T09:41:03.117Z,0.00
2022-10-01T09:43:31.628Z,0.00
2022-10-01T09:45:59.407Z,0.00
2022-10-01T09:48:43.819Z,0.77
2022-10-01T09:51:19.130Z,0.00
2022-10-01T09:53:52.235Z,0.00
2022-10-01T09:56:25.139Z,0.00
2022-10-01T09:58:54.537Z,0.03
2022-10-01T10:01:23.835Z,0.10
2022-10-01T10:03:55.392Z,0.20
2022-10-01T10:06:32.428Z,0.00
2022-10-01T10:09:01.155Z,0.00
2022-10-01T10:11:31.163Z,0.00
2022-10-01T10:14:00.327Z,0.00
2022-10-01T10:16:27.621Z,0.20
2022-10-01T10:19:06.213Z,0.00
2022-10-01T10:21:38.034Z,0.00
2022-10-01T10:24:06.823Z,0.20
2022-10-01T10:26:39.730Z,0.47
2022-10-01T10:29:09.277Z,0.10
2022-10-01T10:31:46.365Z,0.52
2022-10-01T10:34:16.657Z,0.25
2022-10-01T10:36:44.779Z,1.00
2022-10-01T10:39:23.968Z,0.00
2022-10-01T10:41:52.825Z,0.10
2022-10-01T10:44:22.218Z,0.00
2022-10-01T10:46:53.758Z,0.00
2022-10-01T10:49:30.320Z,0.10
2022-10-01T10:51:58.638Z,0.00
2022-10-01T10:54:25.669Z,0.00
2022-10-01T10:56:53.715Z,0.00
2022-10-01T10:59:20.745Z,0.40
2022-10-01T11:01:48.474Z,0.00
2022-10-01T11:04:25.809Z,0.00
2022-10-01T11:06:57.463Z,0.10
2022-10-01T11:09:26.806Z,0.00
2022-10-01T11:12:10.213Z,0.00
2022-10-01T11:14:48.071Z,0.00
2022-10-01T11:17:44.673Z,0.00
2022-10-01T11:20:23.680Z,0.00
2022-10-01T11:22:56.685Z,0.05
2022-10-01T11:25:23.713Z,0.00
2022-10-01T11:27:53.865Z,0.00
2022-10-01T11:30:21.027Z,0.47
2022-10-01T11:32:52.127Z,0.00
2022-10-01T11:35:19.676Z,0.10
2022-10-01T11:38:07.173Z,0.00
2022-10-01T11:40:34.580Z,0.00
2022-10-01T11:43:03.635Z,0.15
2022-10-01T11:45:39.316Z,0.68
2022-10-01T11:48:10.480Z,1.02
2022-10-01T11:50:49.623Z,1.20
2022-10-01T11:53:19.690Z,2.13
2022-10-01T11:56:08.034Z,1.00
2022-10-01T11:58:54.614Z,1.30
2022-10-01T12:01:21.708Z,0.98
2022-10-01T12:03:54.912Z,1.60
2022-10-01T12:06:26.764Z,1.33
2022-10-01T12:09:12.308Z,1.52
2022-10-01T12:12:12.009Z,0.90
2022-10-01T12:14:45.853Z,1.10
2022-10-01T12:17:27.136Z,1.02
2022-10-01T12:19:55.650Z,0.80
2022-10-01T12:22:24.665Z,0.77
2022-10-01T12:24:52.553Z,1.20
2022-10-01T12:27:25.469Z,0.45
2022-10-01T12:29:57.156Z,1.00
2022-10-01T12:32:47.154Z,0.88
2022-10-01T12:35:22.370Z,0.40
2022-10-01T12:37:53.394Z,0.38
2022-10-01T12:40:39.859Z,0.43
2022-10-01T12:43:06.867Z,0.40
2022-10-01T12:45:40.073Z,0.70
2022-10-01T12:48:07.177Z,0.50
2022-10-01T12:50:37.504Z,0.35
2022-10-01T12:53:18.327Z,0.35
2022-10-01T12:55:45.370Z,0.28
2022-10-01T12:58:31.310Z,0.20
2022-10-01T13:00:58.855Z,0.52
2022-10-01T13:03:32.065Z,0.10
2022-10-01T13:06:18.084Z,0.30
2022-10-01T13:09:09.511Z,0.60
2022-10-01T13:11:55.698Z,0.30
2022-10-01T13:14:23.171Z,0.20
2022-10-01T13:16:56.634Z,0.20
2022-10-01T13:19:26.988Z,0.00
2022-10-01T13:22:07.818Z,0.10
2022-10-01T13:24:41.543Z,0.22
2022-10-01T13:27:14.778Z,0.20
2022-10-01T13:30:00.202Z,0.20
2022-10-01T13:32:33.366Z,0.00
2022-10-01T13:35:20.706Z,0.28
2022-10-01T13:37:47.992Z,0.13
2022-10-01T13:40:21.223Z,0.32
2022-10-01T13:42:48.856Z,0.05
2022-10-01T13:45:24.698Z,0.10
2022-10-01T13:47:51.898Z,0.20
2022-10-01T13:50:25.864Z,0.28
2022-10-01T13:52:53.446Z,0.00
2022-10-01T13:55:28.612Z,0.17
2022-10-01T13:58:03.245Z,0.13
2022-10-01T14:00:30.588Z,0.10
2022-10-01T14:03:05.971Z,0.10
2022-10-01T14:08:12.015Z,0.35
2022-10-01T14:11:01.382Z,0.20
2022-10-01T14:13:47.924Z,0.00
2022-10-01T14:16:16.139Z,0.00
2022-10-01T14:18:44.941Z,0.20
2022-10-01T14:21:36.004Z,0.10
2022-10-01T14:24:12.150Z,0.30
2022-10-01T14:26:39.268Z,0.22
2022-10-01T14:29:12.359Z,0.10
2022-10-01T14:31:53.897Z,0.05
2022-10-01T14:34:26.861Z,0.22
2022-10-01T14:36:54.974Z,0.15
2022-10-01T14:39:26.486Z,0.13
2022-10-01T14:41:54.577Z,0.10
2022-10-01T14:44:31.938Z,0.10
2022-10-01T14:46:59.938Z,0.80
2022-10-01T14:49:28.867Z,0.88
2022-10-01T14:51:59.571Z,0.40
2022-10-01T14:54:27.530Z,0.10
2022-10-01T14:56:55.891Z,0.00
2022-10-01T14:59:32.481Z,0.03
2022-10-01T15:02:01.319Z,0.00
2022-10-01T15:04:28.709Z,0.17
2022-10-01T15:07:03.381Z,0.10
2022-10-01T15:09:33.536Z,0.00
2022-10-01T15:12:00.666Z,0.05
2022-10-01T15:14:28.150Z,0.00
2022-10-01T15:16:55.299Z,0.00
2022-10-01T15:19:23.518Z,0.30
2022-10-01T15:21:53.962Z,0.00
2022-10-01T15:24:23.765Z,0.00
2022-10-01T15:26:55.372Z,0.00
2022-10-01T15:29:22.580Z,0.00
2022-10-01T15:31:51.073Z,0.00
2022-10-01T15:34:19.382Z,0.15
2022-10-01T15:36:48.107Z,0.20
2022-10-01T15:39:26.093Z,0.00
2022-10-01T15:41:54.399Z,0.35
2022-10-01T15:44:41.271Z,0.10
2022-10-01T15:47:29.349Z,0.00
2022-10-01T15:50:11.405Z,0.00
2022-10-01T15:52:50.682Z,0.08
2022-10-01T15:55:28.122Z,0.00
2022-10-01T15:58:37.043Z,0.10
2022-10-01T16:01:11.888Z,0.00
2022-10-01T16:03:38.907Z,0.00
2022-10-01T16:06:08.623Z,0.00
2022-10-01T16:08:46.620Z,0.35
2022-10-01T16:11:13.986Z,0.32
2022-10-01T16:13:41.810Z,0.10
2022-10-01T16:16:11.542Z,0.05
2022-10-01T16:18:38.730Z,0.00
2022-10-01T16:21:06.518Z,0.22
2022-10-01T16:23:36.255Z,0.00
2022-10-01T16:26:04.969Z,0.00
2022-10-01T16:28:33.761Z,0.10
2022-10-01T16:31:01.634Z,0.00
2022-10-01T16:33:28.788Z,0.40
2022-10-01T16:36:08.492Z,0.00
2022-10-01T16:38:35.655Z,0.10
2022-10-01T16:41:05.489Z,0.05
2022-10-01T16:43:32.722Z,0.00
2022-10-01T16:45:59.860Z,0.15
2022-10-01T16:48:27.956Z,0.00
2022-10-01T16:50:58.945Z,0.00
2022-10-01T16:53:27.366Z,0.03
2022-10-01T16:55:56.354Z,0.10
2022-10-01T16:58:23.395Z,0.00
2022-10-01T17:00:50.837Z,0.55
2022-10-01T17:03:19.350Z,0.00
2022-10-01T17:05:46.912Z,0.10
2022-10-01T17:08:15.138Z,0.00
2022-10-01T17:10:45.135Z,0.00
2022-10-01T17:13:12.975Z,0.00
2022-10-01T17:15:40.026Z,0.15
2022-10-01T17:18:08.918Z,0.00
2022-10-01T17:20:38.257Z,0.05
2022-10-01T17:23:05.969Z,0.00
2022-10-01T17:25:35.669Z,0.00
2022-10-01T17:28:03.503Z,0.10
2022-10-01T17:30:31.468Z,0.00
2022-10-01T17:33:01.230Z,0.00
2022-10-01T17:35:29.415Z,0.05
2022-10-01T17:37:56.652Z,0.00
2022-10-01T17:40:23.743Z,0.10
2022-10-01T17:42:50.790Z,0.00
2022-10-01T17:45:18.054Z,0.03
2022-10-01T17:47:46.004Z,0.00
2022-10-01T17:50:13.651Z,0.20
2022-10-01T17:52:40.827Z,0.00
2022-10-01T17:55:08.124Z,0.00
2022-10-01T17:57:35.211Z,0.05
2022-10-01T18:00:02.652Z,0.00
2022-10-01T18:02:41.643Z,0.63
2022-10-01T18:05:12.171Z,0.00
2022-10-01T18:07:39.319Z,0.00
2022-10-01T18:10:07.673Z,0.00
2022-10-01T18:12:34.763Z,0.17
2022-10-01T18:15:02.217Z,0.00
2022-10-01T18:17:29.623Z,0.00
2022-10-01T18:19:57.237Z,0.05
2022-10-01T18:22:24.614Z,0.10
2022-10-01T18:24:51.784Z,0.00
2022-10-01T18:27:19.464Z,0.00
2022-10-01T18:29:46.563Z,0.20
2022-10-01T18:32:17.313Z,0.30
2022-10-01T18:34:58.936Z,0.10
2022-10-01T18:37:40.042Z,0.45
2022-10-01T18:40:09.576Z,0.20
2022-10-01T18:42:49.342Z,0.00
2022-10-01T18:45:28.281Z,0.00
2022-10-01T18:47:58.253Z,0.05
2022-10-01T18:50:31.350Z,0.08
2022-10-01T18:53:01.503Z,0.00
2022-10-01T18:55:49.446Z,0.00
2022-10-01T18:58:34.727Z,0.25
2022-10-01T19:01:01.901Z,0.20
2022-10-01T19:03:48.310Z,0.00
2022-10-01T19:06:35.662Z,0.00
2022-10-01T19:09:09.325Z,0.30
2022-10-01T19:11:46.084Z,0.00
2022-10-01T19:14:16.439Z,0.10
2022-10-01T19:17:07.336Z,0.45
2022-10-01T19:19:34.366Z,0.20
2022-10-01T19:22:02.983Z,0.22
2022-10-01T19:24:43.320Z,0.35
2022-10-01T19:27:10.358Z,0.20
2022-10-01T19:29:57.661Z,0.30
2022-10-01T19:32:26.610Z,0.47
2022-10-01T19:35:01.161Z,0.73
2022-10-01T19:37:34.211Z,0.50
2022-10-01T19:40:05.734Z,0.50
2022-10-01T19:42:37.197Z,0.50
2022-10-01T19:45:24.579Z,0.30
2022-10-01T19:48:09.747Z,0.93
2022-10-01T19:50:41.975Z,0.73
2022-10-01T19:53:14.792Z,0.75
2022-10-01T19:55:43.858Z,0.60
2022-10-01T19:58:15.217Z,0.85
2022-10-01T20:00:42.573Z,0.55
2022-10-01T20:03:19.016Z,0.85
2022-10-01T20:05:53.087Z,0.52
2022-10-01T20:08:28.818Z,0.80
2022-10-01T20:10:57.846Z,0.50
2022-10-01T20:13:36.343Z,2.72
2022-10-01T20:16:13.201Z,0.60
2022-10-01T20:18:56.992Z,0.75
2022-10-01T20:21:24.263Z,0.80
2022-10-01T20:23:58.151Z,0.40
2022-10-01T20:26:31.335Z,0.50
2022-10-01T20:29:10.861Z,0.65
2022-10-01T20:31:39.690Z,0.90
2022-10-01T20:34:15.908Z,0.68
2022-10-01T20:36:45.800Z,0.50
2022-10-01T20:39:12.823Z,0.65
2022-10-01T20:41:45.080Z,0.57
2022-10-01T20:44:15.731Z,0.30
2022-10-01T20:46:54.111Z,0.57
2022-10-01T20:49:27.170Z,0.32
2022-10-01T20:52:03.483Z,0.70
2022-10-01T20:54:36.271Z,0.80
2022-10-01T20:57:09.893Z,0.90
2022-10-01T20:59:41.905Z,0.60
2022-10-01T21:02:21.312Z,0.68
2022-10-01T21:04:53.809Z,0.50
2022-10-01T21:07:21.127Z,0.60
2022-10-01T21:09:50.352Z,0.82
2022-10-01T21:12:21.764Z,0.40
2022-10-01T21:14:52.140Z,0.47
2022-10-01T21:17:22.342Z,0.40
2022-10-01T21:20:03.009Z,0.85
2022-10-01T21:22:33.095Z,1.02
2022-10-01T21:25:19.165Z,0.73
2022-10-01T21:28:01.729Z,0.93
2022-10-01T21:30:33.709Z,0.52
2022-10-01T21:33:11.248Z,0.82
2022-10-01T21:35:38.306Z,0.50
2022-10-01T21:38:11.210Z,0.57
2022-10-01T21:40:50.440Z,0.88
2022-10-01T21:43:20.734Z,0.77
2022-10-01T21:45:50.890Z,0.57
2022-10-01T21:48:39.774Z,0.95
2022-10-01T21:51:13.995Z,0.50
2022-10-01T21:54:13.626Z,0.50
2022-10-01T21:56:40.848Z,0.50
2022-10-01T21:59:21.553Z,0.70
2022-10-01T22:02:04.466Z,0.70
2022-10-01T22:04:40.093Z,0.60
2022-10-01T22:07:10.085Z,0.68
2022-10-01T22:09:37.246Z,0.73
2022-10-01T22:12:06.053Z,0.70
2022-10-01T22:14:33.202Z,1.00
2022-10-01T22:17:04.713Z,0.73
2022-10-01T22:19:42.460Z,0.47
2022-10-01T22:22:12.491Z,0.60
2022-10-01T22:24:43.570Z,0.40
2022-10-01T22:27:17.274Z,0.60
2022-10-01T22:29:51.114Z,0.50
2022-10-01T22:32:20.078Z,0.70
2022-10-01T22:34:55.641Z,1.00
2022-10-01T22:37:26.724Z,0.73
2022-10-01T22:40:03.635Z,0.82
2022-10-01T22:42:36.575Z,0.63
2022-10-01T22:45:09.862Z,0.60
2022-10-01T22:47:40.015Z,0.50
2022-10-01T22:50:16.237Z,0.75
2022-10-01T22:53:00.602Z,0.98
2022-10-01T22:55:30.541Z,1.02
2022-10-01T22:58:16.656Z,0.60
2022-10-01T23:01:05.646Z,0.50
2022-10-01T23:03:50.181Z,0.35
2022-10-01T23:06:25.490Z,0.70
2022-10-01T23:08:55.305Z,0.65
2022-10-01T23:11:25.735Z,0.50
2022-10-01T23:14:07.802Z,0.57
2022-10-01T23:16:40.646Z,0.50
2022-10-01T23:19:17.835Z,0.40
2022-10-01T23:22:17.339Z,0.50
2022-10-01T23:24:44.333Z,0.55
2022-10-01T23:27:18.164Z,0.65
2022-10-01T23:30:03.935Z,0.35
2022-10-01T23:32:49.771Z,0.52
2022-10-01T23:38:02.283Z,0.50
2022-10-01T23:40:33.029Z,0.35
2022-10-01T23:43:10.601Z,0.40
2022-10-01T23:45:46.593Z,0.43
2022-10-01T23:48:22.431Z,0.20
2022-10-01T23:50:55.912Z,0.20
2022-10-01T23:53:32.796Z,0.57
2022-10-01T23:56:18.399Z,0.45
2022-10-01T23:58:56.237Z,0.40
